createdAt,value
2022-09-27T00:00:44.962Z,62.91
2022-09-27T00:03:13.598Z,63.26
2022-09-27T00:05:41.630Z,63.30
2022-09-27T00:08:10.575Z,63.17
2022-09-27T00:10:38.214Z,63.38
2022-09-27T00:13:05.783Z,63.25
2022-09-27T00:15:33.544Z,62.90
2022-09-27T00:18:01.166Z,63.24
2022-09-27T00:20:28.819Z,62.69
2022-09-27T00:22:56.371Z,62.71
2022-09-27T00:25:25.557Z,63.21
2022-09-27T00:27:53.141Z,62.78
2022-09-27T00:30:20.724Z,63.04
2022-09-27T00:32:48.283Z,63.29
2022-09-27T00:35:16.833Z,63.84
2022-09-27T00:37:44.542Z,63.86
2022-09-27T00:40:16.199Z,62.91
2022-09-27T00:42:48.209Z,63.26
2022-09-27T00:45:17.969Z,63.31
2022-09-27T00:47:54.197Z,63.44
2022-09-27T00:50:29.741Z,63.95
2022-09-27T00:53:05.514Z,64.09
2022-09-27T00:55:39.038Z,63.08
2022-09-27T00:58:09.196Z,63.99
2022-09-27T01:00:40.899Z,63.63
2022-09-27T01:03:13.696Z,63.58
2022-09-27T01:05:42.553Z,64.04
2022-09-27T01:08:10.353Z,63.73
2022-09-27T01:10:47.339Z,64.49
2022-09-27T01:13:26.277Z,64.01
2022-09-27T01:16:00.583Z,64.18
2022-09-27T01:18:35.963Z,64.40
2022-09-27T01:21:25.300Z,64.22
2022-09-27T01:24:07.963Z,64.07
2022-09-27T01:26:55.949Z,65.39
2022-09-27T01:29:31.118Z,64.11
2022-09-27T01:32:10.797Z,63.83
2022-09-27T01:34:45.951Z,63.68
2022-09-27T01:37:21.837Z,64.61
2022-09-27T01:39:57.263Z,64.84
2022-09-27T01:42:28.122Z,64.88
2022-09-27T01:45:02.223Z,64.28
2022-09-27T01:47:39.396Z,64.50
2022-09-27T01:50:12.569Z,64.63
2022-09-27T01:52:44.873Z,64.06
2022-09-27T01:55:16.044Z,64.96
2022-09-27T01:57:48.301Z,64.83
2022-09-27T02:00:16.201Z,64.77
2022-09-27T02:02:49.385Z,65.75
2022-09-27T02:05:20.015Z,65.09
2022-09-27T02:07:54.376Z,65.21
2022-09-27T02:10:26.025Z,64.82
2022-09-27T02:12:59.443Z,65.66
2022-09-27T02:15:27.820Z,66.10
2022-09-27T02:18:02.537Z,66.22
2022-09-27T02:20:34.881Z,65.30
2022-09-27T02:23:15.085Z,66.79
2022-09-27T02:25:47.828Z,65.51
2022-09-27T02:28:23.923Z,65.03
2022-09-27T02:30:51.536Z,65.11
2022-09-27T02:33:23.892Z,65.51
2022-09-27T02:35:51.465Z,65.53
2022-09-27T02:38:19.344Z,65.90
2022-09-27T02:40:48.568Z,65.90
2022-09-27T02:43:18.750Z,65.33
2022-09-27T02:45:58.260Z,66.35
2022-09-27T02:48:33.021Z,66.30
2022-09-27T02:51:18.895Z,67.09
2022-09-27T02:54:00.122Z,66.36
2022-09-27T02:56:36.290Z,66.09
2022-09-27T02:59:09.017Z,65.47
2022-09-27T03:01:43.488Z,65.62
2022-09-27T03:04:18.615Z,66.28
2022-09-27T03:06:48.240Z,66.49
2022-09-27T03:09:19.892Z,66.69
2022-09-27T03:11:47.675Z,66.44
2022-09-27T03:14:15.202Z,66.83
2022-09-27T03:16:42.735Z,66.57
2022-09-27T03:19:11.737Z,67.19
2022-09-27T03:21:39.316Z,67.12
2022-09-27T03:24:07.178Z,67.02
2022-09-27T03:26:34.720Z,66.96
2022-09-27T03:29:02.266Z,67.59
2022-09-27T03:31:30.477Z,67.42
2022-09-27T03:33:58.160Z,67.18
2022-09-27T03:36:27.399Z,68.03
2022-09-27T03:38:54.995Z,67.54
2022-09-27T03:41:22.714Z,67.69
2022-09-27T03:43:50.317Z,68.34
2022-09-27T03:46:17.963Z,68.38
2022-09-27T03:48:45.521Z,68.04
2022-09-27T03:51:13.195Z,68.57
2022-09-27T03:53:42.827Z,69.00
2022-09-27T03:56:10.857Z,68.11
2022-09-27T03:58:38.362Z,68.17
2022-09-27T04:01:05.919Z,67.93
2022-09-27T04:03:33.498Z,67.90
2022-09-27T04:06:01.007Z,68.37
2022-09-27T04:08:28.544Z,68.30
2022-09-27T04:10:57.529Z,68.29
2022-09-27T04:13:25.136Z,69.34
2022-09-27T04:15:52.748Z,68.61
2022-09-27T04:18:20.251Z,68.29
2022-09-27T04:20:47.809Z,67.83
2022-09-27T04:23:15.415Z,68.25
2022-09-27T04:25:43.282Z,68.20
2022-09-27T04:28:12.941Z,67.97
2022-09-27T04:30:41.352Z,68.01
2022-09-27T04:33:08.967Z,67.97
2022-09-27T04:35:54.186Z,67.83
2022-09-27T04:38:24.024Z,68.01
2022-09-27T04:40:51.724Z,67.45
2022-09-27T04:43:20.757Z,67.40
2022-09-27T04:45:48.296Z,67.14
2022-09-27T04:48:16.317Z,66.67
2022-09-27T04:50:43.809Z,67.36
2022-09-27T04:53:14.762Z,67.16
2022-09-27T04:55:46.283Z,68.00
2022-09-27T05:01:00.023Z,67.25
2022-09-27T05:06:10.963Z,67.89
2022-09-27T05:08:41.952Z,67.43
2022-09-27T05:16:32.012Z,68.53
2022-09-27T05:19:02.936Z,68.57
2022-09-27T05:21:33.152Z,68.55
2022-09-27T05:24:02.144Z,69.38
2022-09-27T05:26:31.117Z,69.66
2022-09-27T05:28:59.725Z,68.58
2022-09-27T05:31:29.923Z,68.94
2022-09-27T05:33:58.929Z,69.78
2022-09-27T05:36:27.729Z,70.09
2022-09-27T05:38:56.637Z,69.68
2022-09-27T05:41:26.424Z,69.25
2022-09-27T05:43:56.546Z,69.28
2022-09-27T05:46:26.566Z,68.89
2022-09-27T05:48:57.069Z,70.35
2022-09-27T05:51:25.777Z,70.52
2022-09-27T05:53:54.657Z,69.62
2022-09-27T05:56:27.215Z,69.84
2022-09-27T05:58:56.166Z,69.88
2022-09-27T06:01:27.960Z,69.54
2022-09-27T06:03:58.414Z,69.78
2022-09-27T06:06:26.973Z,69.94
2022-09-27T06:12:02.470Z,70.82
2022-09-27T06:14:33.981Z,70.15
2022-09-27T06:19:39.688Z,69.52
2022-09-27T06:22:08.636Z,69.71
2022-09-27T06:24:37.745Z,69.70
2022-09-27T06:29:42.353Z,70.38
2022-09-27T06:34:48.427Z,70.26
2022-09-27T06:37:17.291Z,70.65
2022-09-27T06:42:29.618Z,70.25
2022-09-27T06:47:40.100Z,69.37
2022-09-27T06:50:12.754Z,68.92
2022-09-27T06:52:47.990Z,69.16
2022-09-27T06:58:16.598Z,68.86
2022-09-27T07:00:48.120Z,68.74
2022-09-27T07:03:17.234Z,68.82
2022-09-27T07:05:57.766Z,68.85
2022-09-27T07:08:29.202Z,68.81
2022-09-27T07:11:03.233Z,69.76
2022-09-27T07:13:34.864Z,69.80
2022-09-27T07:16:04.203Z,69.08
2022-09-27T07:18:33.130Z,69.53
2022-09-27T07:21:03.503Z,69.03
2022-09-27T07:23:32.711Z,69.10
2022-09-27T07:26:04.768Z,69.28
2022-09-27T07:28:33.856Z,69.22
2022-09-27T07:31:04.103Z,69.50
2022-09-27T07:33:33.800Z,69.88
2022-09-27T07:36:08.709Z,72.17
2022-09-27T07:38:37.870Z,70.78
2022-09-27T07:41:10.497Z,69.87
2022-09-27T07:43:38.861Z,70.22
2022-09-27T07:48:43.777Z,69.58
2022-09-27T07:51:16.314Z,70.04
2022-09-27T07:53:45.438Z,69.82
2022-09-27T07:56:15.641Z,69.18
2022-09-27T07:58:45.026Z,69.92
2022-09-27T08:01:14.856Z,69.02
2022-09-27T08:03:43.972Z,69.39
2022-09-27T08:06:14.711Z,69.13
2022-09-27T08:08:43.955Z,69.17
2022-09-27T08:11:18.868Z,69.26
2022-09-27T08:13:52.709Z,68.83
2022-09-27T08:16:20.948Z,68.69
2022-09-27T08:18:49.294Z,69.16
2022-09-27T08:21:18.545Z,68.69
2022-09-27T08:23:49.160Z,69.22
2022-09-27T08:26:17.120Z,68.79
2022-09-27T08:28:45.234Z,68.85
2022-09-27T08:31:15.830Z,69.17
2022-09-27T08:33:44.580Z,70.43
2022-09-27T08:36:13.725Z,69.40
2022-09-27T08:38:46.985Z,68.47
2022-09-27T08:41:44.820Z,68.48
2022-09-27T08:44:20.395Z,68.94
2022-09-27T08:47:03.907Z,69.40
2022-09-27T08:49:39.923Z,68.96
2022-09-27T08:52:22.501Z,70.20
2022-09-27T08:54:53.101Z,67.92
2022-09-27T08:57:23.165Z,67.84
2022-09-27T09:00:07.229Z,68.53
2022-09-27T09:02:40.332Z,68.82
2022-09-27T09:05:19.794Z,68.19
2022-09-27T09:08:03.411Z,68.43
2022-09-27T09:11:04.668Z,67.09
2022-09-27T09:13:54.419Z,67.30
2022-09-27T09:16:38.036Z,68.08
2022-09-27T09:19:36.468Z,68.77
2022-09-27T09:22:50.082Z,67.18
2022-09-27T09:25:42.694Z,66.61
2022-09-27T09:28:28.065Z,65.95
2022-09-27T09:31:08.495Z,66.30
2022-09-27T09:33:41.765Z,66.50
2022-09-27T09:36:15.589Z,66.28
2022-09-27T09:38:52.721Z,65.62
2022-09-27T09:41:29.720Z,65.39
2022-09-27T09:44:02.796Z,66.20
2022-09-27T09:46:40.189Z,64.02
2022-09-27T09:49:20.066Z,62.84
2022-09-27T09:52:06.493Z,63.06
2022-09-27T09:54:42.484Z,62.94
2022-09-27T09:57:17.683Z,61.87
2022-09-27T09:59:54.973Z,61.86
2022-09-27T10:02:30.600Z,62.30
2022-09-27T10:05:07.466Z,62.92
2022-09-27T10:07:43.563Z,62.94
2022-09-27T10:10:18.998Z,62.91
2022-09-27T10:12:51.972Z,63.29
2022-09-27T10:15:28.243Z,63.02
2022-09-27T10:18:00.911Z,62.50
2022-09-27T10:20:34.338Z,62.82
2022-09-27T10:23:10.771Z,62.35
2022-09-27T10:25:52.839Z,62.57
2022-09-27T10:28:34.114Z,61.45
2022-09-27T10:31:07.643Z,61.35
2022-09-27T10:33:39.651Z,61.51
2022-09-27T10:36:28.175Z,63.09
2022-09-27T10:39:06.463Z,62.68
2022-09-27T10:41:37.032Z,63.23
2022-09-27T10:44:22.722Z,62.20
2022-09-27T10:47:00.768Z,61.85
2022-09-27T10:49:33.433Z,62.38
2022-09-27T10:52:07.304Z,62.70
2022-09-27T10:54:48.069Z,62.77
2022-09-27T10:57:22.590Z,62.15
2022-09-27T10:59:59.646Z,64.58
2022-09-27T11:02:33.556Z,65.09
2022-09-27T11:05:16.656Z,63.65
2022-09-27T11:08:07.550Z,62.84
2022-09-27T11:10:44.175Z,60.44
2022-09-27T11:13:17.727Z,60.03
2022-09-27T11:16:22.775Z,59.75
2022-09-27T11:19:15.568Z,59.31
2022-09-27T11:21:51.970Z,59.02
2022-09-27T11:24:56.330Z,59.06
2022-09-27T11:27:38.581Z,57.54
2022-09-27T11:30:18.278Z,58.50
2022-09-27T11:33:12.859Z,59.66
2022-09-27T11:35:58.710Z,60.33
2022-09-27T11:38:53.088Z,60.30
2022-09-27T11:41:34.900Z,60.57
2022-09-27T11:44:21.680Z,59.70
2022-09-27T11:47:00.479Z,61.31
2022-09-27T11:50:07.729Z,58.49
2022-09-27T11:52:51.017Z,57.85
2022-09-27T11:55:33.298Z,58.42
2022-09-27T11:58:12.496Z,59.16
2022-09-27T12:00:58.033Z,60.61
2022-09-27T12:04:09.081Z,61.19
2022-09-27T12:06:49.591Z,59.64
2022-09-27T12:09:25.413Z,59.28
2022-09-27T12:11:58.953Z,61.06
2022-09-27T12:14:36.609Z,61.05
2022-09-27T12:17:08.369Z,62.28
2022-09-27T12:19:42.107Z,60.31
2022-09-27T12:22:40.341Z,59.96
2022-09-27T12:25:20.495Z,62.77
2022-09-27T12:27:58.481Z,60.93
2022-09-27T12:30:41.983Z,60.49
2022-09-27T12:33:19.387Z,59.25
2022-09-27T12:35:56.549Z,59.93
2022-09-27T12:38:39.581Z,59.19
2022-09-27T12:41:13.738Z,60.71
2022-09-27T12:43:48.754Z,59.00
2022-09-27T12:46:30.722Z,57.73
2022-09-27T12:49:09.561Z,59.62
2022-09-27T12:51:42.705Z,60.68
2022-09-27T12:54:36.594Z,58.91
2022-09-27T12:57:20.302Z,60.15
2022-09-27T13:00:03.637Z,59.26
2022-09-27T13:03:15.642Z,60.04
2022-09-27T13:06:09.504Z,59.25
2022-09-27T13:09:17.503Z,58.85
2022-09-27T13:11:55.503Z,58.08
2022-09-27T13:14:35.988Z,60.17
2022-09-27T13:17:04.989Z,59.71
2022-09-27T13:19:56.427Z,59.05
2022-09-27T13:22:52.568Z,59.90
2022-09-27T13:25:53.057Z,60.41
2022-09-27T13:28:37.187Z,60.60
2022-09-27T13:31:10.857Z,63.51
2022-09-27T13:33:49.849Z,63.53
2022-09-27T13:36:30.967Z,64.27
2022-09-27T13:39:24.584Z,62.99
2022-09-27T13:42:11.606Z,66.35
2022-09-27T13:44:55.410Z,65.17
2022-09-27T13:47:42.847Z,64.56
2022-09-27T13:50:22.355Z,65.06
2022-09-27T13:53:03.963Z,64.58
2022-09-27T13:55:49.923Z,65.74
2022-09-27T13:58:40.596Z,65.66
2022-09-27T14:01:18.823Z,65.72
2022-09-27T14:03:51.524Z,65.64
2022-09-27T14:06:26.000Z,64.87
2022-09-27T14:08:57.791Z,64.28
2022-09-27T14:36:19.380Z,67.02
2022-09-27T14:57:57.641Z,70.05
2022-09-27T15:22:42.357Z,69.65
2022-09-27T15:27:59.353Z,68.08
2022-09-27T15:33:09.271Z,68.83
2022-09-27T15:38:36.858Z,68.09
2022-09-27T15:51:48.939Z,68.58
2022-09-27T15:54:22.596Z,68.27
2022-09-27T16:02:16.907Z,67.73
2022-09-27T16:04:46.472Z,68.59
2022-09-27T16:07:16.671Z,68.58
2022-09-27T16:09:47.417Z,69.53
2022-09-27T16:12:17.339Z,69.79
2022-09-27T16:14:46.921Z,69.85
2022-09-27T16:17:16.244Z,70.13
2022-09-27T16:19:45.723Z,69.21
2022-09-27T16:22:14.805Z,69.64
2022-09-27T16:24:44.244Z,69.83
2022-09-27T16:27:21.194Z,69.61
2022-09-27T16:35:20.867Z,70.11
2022-09-27T16:37:59.350Z,70.05
2022-09-27T16:40:40.694Z,69.53
2022-09-27T16:43:42.469Z,70.38
2022-09-27T16:46:22.659Z,71.12
2022-09-27T16:51:55.455Z,70.49
2022-09-27T16:54:29.465Z,70.58
2022-09-27T16:57:01.355Z,70.75
2022-09-27T17:05:57.445Z,71.79
2022-09-27T17:08:37.894Z,70.68
2022-09-27T17:11:20.847Z,70.40
2022-09-27T17:13:55.416Z,71.23
2022-09-27T17:16:39.274Z,70.44
2022-09-27T17:19:11.863Z,70.46
2022-09-27T17:21:46.445Z,70.72
2022-09-27T17:24:16.333Z,70.77
2022-09-27T17:26:55.955Z,70.74
2022-09-27T17:29:29.247Z,70.30
2022-09-27T17:32:04.066Z,71.39
2022-09-27T17:34:55.050Z,72.23
2022-09-27T17:37:31.929Z,71.55
2022-09-27T17:40:18.376Z,72.29
2022-09-27T17:43:04.432Z,71.08
2022-09-27T17:45:36.994Z,72.09
2022-09-27T17:48:30.021Z,72.03
2022-09-27T17:51:01.347Z,71.50
2022-09-27T17:53:36.072Z,70.69
2022-09-27T17:56:09.057Z,71.51
2022-09-27T17:58:40.879Z,71.39
2022-09-27T18:01:09.133Z,71.40
2022-09-27T18:06:28.496Z,71.83
2022-09-27T18:09:32.415Z,73.17
2022-09-27T18:21:39.841Z,70.90
2022-09-27T18:39:15.406Z,69.99
2022-09-27T18:41:43.217Z,70.60
2022-09-27T18:44:21.172Z,71.72
2022-09-27T18:58:21.594Z,67.86
2022-09-27T19:00:59.329Z,68.26
2022-09-27T19:09:02.050Z,68.78
2022-09-27T19:11:44.384Z,67.96
2022-09-27T19:17:13.000Z,68.86
2022-09-27T19:22:23.690Z,67.38
2022-09-27T19:27:41.302Z,67.23
2022-09-27T20:13:41.597Z,66.50
2022-09-27T20:16:12.660Z,66.71
2022-09-27T20:18:42.438Z,67.13
2022-09-27T20:21:13.392Z,66.61
2022-09-27T20:23:44.494Z,66.36
2022-09-27T20:26:14.427Z,66.93
2022-09-27T20:28:45.097Z,67.22
2022-09-27T20:31:17.565Z,68.52
2022-09-27T20:33:46.923Z,67.78
2022-09-27T20:36:17.264Z,68.01
2022-09-27T20:38:49.576Z,68.05
2022-09-27T20:41:25.182Z,67.83
2022-09-27T20:44:00.436Z,68.00
2022-09-27T20:46:31.465Z,68.01
2022-09-27T20:49:05.712Z,69.55
2022-09-27T20:51:34.801Z,68.09
2022-09-27T20:54:05.055Z,68.96
2022-09-27T20:56:38.636Z,68.29
2022-09-27T20:59:18.810Z,68.37
2022-09-27T21:07:39.866Z,70.46
2022-09-27T21:13:47.421Z,66.47
2022-09-27T21:16:20.404Z,66.04
2022-09-27T21:19:05.758Z,67.96
2022-09-27T21:21:40.843Z,68.86
2022-09-27T21:24:34.205Z,68.93
2022-09-27T21:27:07.503Z,68.66
2022-09-27T21:29:45.549Z,71.08
2022-09-27T21:32:38.736Z,69.04
2022-09-27T21:35:18.402Z,68.86
2022-09-27T21:37:49.399Z,69.45
2022-09-27T21:40:51.141Z,68.65
2022-09-27T21:43:25.085Z,68.19
2022-09-27T21:45:55.901Z,67.56
2022-09-27T21:48:32.333Z,67.41
2022-09-27T21:51:35.077Z,68.33
2022-09-27T21:57:03.690Z,67.45
2022-09-27T21:59:34.247Z,67.00
2022-09-27T22:02:14.770Z,69.00
2022-09-27T22:05:03.042Z,67.54
2022-09-27T22:07:35.894Z,66.35
2022-09-27T22:10:09.022Z,67.37
2022-09-27T22:12:40.616Z,66.25
2022-09-27T22:15:13.448Z,67.10
2022-09-27T22:17:41.647Z,68.12
2022-09-27T22:20:13.944Z,66.78
2022-09-27T22:22:42.201Z,66.41
2022-09-27T22:25:15.292Z,66.51
2022-09-27T22:27:52.675Z,66.71
2022-09-27T22:30:26.485Z,66.80
2022-09-27T22:32:57.128Z,66.87
2022-09-27T22:35:30.531Z,67.06
2022-09-27T22:37:58.760Z,66.66
2022-09-27T22:40:30.841Z,67.09
2022-09-27T22:42:59.857Z,67.13
2022-09-27T22:45:30.968Z,67.54
2022-09-27T22:48:00.276Z,67.74
2022-09-27T22:50:31.845Z,68.11
2022-09-27T22:53:03.575Z,68.89
2022-09-27T22:55:37.613Z,70.15
2022-09-27T22:58:11.165Z,70.70
2022-09-27T23:00:43.065Z,70.33
2022-09-27T23:03:11.649Z,68.89
2022-09-27T23:05:49.462Z,69.60
2022-09-27T23:08:25.888Z,69.25
2022-09-27T23:10:54.869Z,68.98
2022-09-27T23:13:24.129Z,69.35
2022-09-27T23:16:09.437Z,70.36
2022-09-27T23:18:38.581Z,70.97
2022-09-27T23:21:14.701Z,70.05
2022-09-27T23:23:53.763Z,70.04
2022-09-27T23:26:30.577Z,69.95
2022-09-27T23:29:02.211Z,69.87
2022-09-27T23:31:38.542Z,70.97
2022-09-27T23:34:10.922Z,70.66
2022-09-27T23:36:47.799Z,71.20
2022-09-27T23:39:19.264Z,71.19
2022-09-27T23:41:50.827Z,70.88
2022-09-27T23:44:21.345Z,70.79
2022-09-27T23:46:53.346Z,71.79
2022-09-27T23:49:26.183Z,71.50
2022-09-27T23:52:01.021Z,72.23
2022-09-27T23:54:33.726Z,71.06
2022-09-27T23:57:13.547Z,70.82
2022-09-27T23:59:53.459Z,70.29
